North Hebron, New York
Current Conditions -  °F | °C
As of 4:53 PM on Thursday 23 Oct 2014 (Local Time) from KGFL Reporting Station
Overcast Overcast  
Wind Chill: 46°   Ceiling: 2100
Heat Index: 48°   Visibility: 10mi
Dew Point: 44°   Wind: 5mph
Humidity: 86%   Direction: 340°NNW
Pressure: 29.84"   Gusts: NA
Location:  43.3389°N, 73.3194°W
Report Text: KGFL 232053Z AUTO 34004KT 10SM BKN021 BKN028 OVC042 09/07 A2984 RMK AO2 RAE39 SLP107 P0003 60007 T00890067 53001
Loading
Personal Weather Stations






























Interactive Weather Map
Tropical Storm Tracking
New forecast layout! Learn more

10-Day Weather Forecast

Advertisements
Track Severe Weather on mobile